sensor_id;sensor_type;location;lat;lon;timestamp;pressure;altitude;pressure_sealevel;temperature;humidity
19783;BME280;10051;40.294;-3.754;2023-02-12T00:00:01;95492.41;;;4.92;64.20
19783;BME280;10051;40.294;-3.754;2023-02-12T00:02:28;95527.00;;;5.06;64.52
19783;BME280;10051;40.294;-3.754;2023-02-12T00:04:53;95508.84;;;4.93;64.74
19783;BME280;10051;40.294;-3.754;2023-02-12T00:07:22;95461.31;;;4.58;64.41
19783;BME280;10051;40.294;-3.754;2023-02-12T00:09:47;95465.91;;;4.63;65.13
19783;BME280;10051;40.294;-3.754;2023-02-12T00:12:13;95465.88;;;4.70;64.79
19783;BME280;10051;40.294;-3.754;2023-02-12T00:14:39;95469.94;;;4.59;64.77
19783;BME280;10051;40.294;-3.754;2023-02-12T00:17:04;95364.22;;;3.99;64.92
19783;BME280;10051;40.294;-3.754;2023-02-12T00:19:30;95510.00;;;4.97;64.95
19783;BME280;10051;40.294;-3.754;2023-02-12T00:21:56;95437.31;;;4.50;64.85
19783;BME280;10051;40.294;-3.754;2023-02-12T00:24:21;95467.25;;;4.72;64.72
19783;BME280;10051;40.294;-3.754;2023-02-12T00:26:47;95472.88;;;4.69;65.65
19783;BME280;10051;40.294;-3.754;2023-02-12T00:29:13;95397.44;;;4.10;65.47
19783;BME280;10051;40.294;-3.754;2023-02-12T00:31:39;95514.50;;;4.83;65.62
19783;BME280;10051;40.294;-3.754;2023-02-12T00:34:05;95491.56;;;4.59;65.92
19783;BME280;10051;40.294;-3.754;2023-02-12T00:36:31;95513.13;;;4.73;66.20
19783;BME280;10051;40.294;-3.754;2023-02-12T00:38:57;95511.31;;;4.81;66.20
19783;BME280;10051;40.294;-3.754;2023-02-12T00:41:23;95484.56;;;4.60;66.12
19783;BME280;10051;40.294;-3.754;2023-02-12T00:43:50;95452.00;;;4.37;66.14
19783;BME280;10051;40.294;-3.754;2023-02-12T00:46:15;95334.75;;;3.60;66.08
19783;BME280;10051;40.294;-3.754;2023-02-12T00:48:41;95447.78;;;4.36;66.20
19783;BME280;10051;40.294;-3.754;2023-02-12T00:51:07;95390.03;;;4.07;65.79
19783;BME280;10051;40.294;-3.754;2023-02-12T00:53:33;95465.31;;;4.54;66.06
19783;BME280;10051;40.294;-3.754;2023-02-12T00:56:00;95505.72;;;4.77;66.53
19783;BME280;10051;40.294;-3.754;2023-02-12T00:58:26;95484.09;;;4.70;66.28
19783;BME280;10051;40.294;-3.754;2023-02-12T01:00:52;95479.47;;;4.72;66.30
19783;BME280;10051;40.294;-3.754;2023-02-12T01:03:19;95464.31;;;4.55;66.31
19783;BME280;10051;40.294;-3.754;2023-02-12T01:05:45;95463.22;;;4.76;65.96
19783;BME280;10051;40.294;-3.754;2023-02-12T01:08:12;95395.38;;;4.19;66.21
19783;BME280;10051;40.294;-3.754;2023-02-12T01:10:38;95491.69;;;4.78;66.20
19783;BME280;10051;40.294;-3.754;2023-02-12T01:13:04;95445.53;;;4.46;66.23
19783;BME280;10051;40.294;-3.754;2023-02-12T01:15:30;95447.31;;;4.53;66.05
19783;BME280;10051;40.294;-3.754;2023-02-12T01:17:55;95479.19;;;4.87;65.93
19783;BME280;10051;40.294;-3.754;2023-02-12T01:20:23;95430.34;;;4.75;64.66
19783;BME280;10051;40.294;-3.754;2023-02-12T01:22:50;95441.28;;;4.91;63.88
19783;BME280;10051;40.294;-3.754;2023-02-12T01:25:16;95482.28;;;5.09;64.34
19783;BME280;10051;40.294;-3.754;2023-02-12T01:27:42;95478.19;;;5.20;63.83
19783;BME280;10051;40.294;-3.754;2023-02-12T01:30:10;95439.78;;;5.02;63.37
19783;BME280;10051;40.294;-3.754;2023-02-12T01:32:36;95447.84;;;5.00;63.39
19783;BME280;10051;40.294;-3.754;2023-02-12T01:35:03;95480.25;;;5.11;63.93
19783;BME280;10051;40.294;-3.754;2023-02-12T01:37:28;95489.97;;;4.97;64.25
19783;BME280;10051;40.294;-3.754;2023-02-12T01:39:54;95386.34;;;4.22;64.74
19783;BME280;10051;40.294;-3.754;2023-02-12T01:42:20;95426.13;;;4.42;64.88
19783;BME280;10051;40.294;-3.754;2023-02-12T01:47:37;95419.00;;;4.63;64.05
19783;BME280;10051;40.294;-3.754;2023-02-12T01:50:04;95469.53;;;4.94;63.81
19783;BME280;10051;40.294;-3.754;2023-02-12T01:52:33;95449.97;;;4.78;63.94
19783;BME280;10051;40.294;-3.754;2023-02-12T01:55:04;95405.38;;;4.61;63.69
19783;BME280;10051;40.294;-3.754;2023-02-12T01:57:33;95443.66;;;4.93;62.93
19783;BME280;10051;40.294;-3.754;2023-02-12T02:00:00;95427.81;;;4.94;62.71
19783;BME280;10051;40.294;-3.754;2023-02-12T02:02:30;95349.22;;;4.33;62.71
19783;BME280;10051;40.294;-3.754;2023-02-12T02:04:59;95485.41;;;5.18;62.69
19783;BME280;10051;40.294;-3.754;2023-02-12T02:07:27;95484.41;;;5.19;62.95
19783;BME280;10051;40.294;-3.754;2023-02-12T02:09:53;95446.25;;;4.99;62.58
19783;BME280;10051;40.294;-3.754;2023-02-12T02:12:18;95439.69;;;4.90;63.02
19783;BME280;10051;40.294;-3.754;2023-02-12T02:15:03;95402.03;;;4.47;63.19
19783;BME280;10051;40.294;-3.754;2023-02-12T02:17:37;95412.63;;;4.52;63.73
19783;BME280;10051;40.294;-3.754;2023-02-12T02:34:53;95461.63;;;4.75;64.58
19783;BME280;10051;40.294;-3.754;2023-02-12T02:37:37;95458.88;;;4.64;65.34
19783;BME280;10051;40.294;-3.754;2023-02-12T02:40:13;95450.06;;;4.65;65.01
19783;BME280;10051;40.294;-3.754;2023-02-12T02:42:48;95381.72;;;4.24;65.20
19783;BME280;10051;40.294;-3.754;2023-02-12T02:45:46;95397.81;;;4.53;64.39
19783;BME280;10051;40.294;-3.754;2023-02-12T02:48:16;95449.25;;;4.64;65.22
19783;BME280;10051;40.294;-3.754;2023-02-12T02:50:47;95400.72;;;4.31;65.63
19783;BME280;10051;40.294;-3.754;2023-02-12T02:53:18;95428.50;;;4.51;65.13
19783;BME280;10051;40.294;-3.754;2023-02-12T02:55:50;95383.22;;;4.06;65.67
19783;BME280;10051;40.294;-3.754;2023-02-12T02:58:49;95454.22;;;4.72;64.85
19783;BME280;10051;40.294;-3.754;2023-02-12T03:01:43;95436.91;;;4.53;65.60
19783;BME280;10051;40.294;-3.754;2023-02-12T03:04:19;95388.53;;;4.25;65.45
19783;BME280;10051;40.294;-3.754;2023-02-12T03:06:54;95311.09;;;3.75;65.22
19783;BME280;10051;40.294;-3.754;2023-02-12T03:09:53;95427.53;;;4.38;65.85
19783;BME280;10051;40.294;-3.754;2023-02-12T03:12:30;95436.13;;;4.45;65.91
19783;BME280;10051;40.294;-3.754;2023-02-12T03:15:09;95415.56;;;4.24;66.06
19783;BME280;10051;40.294;-3.754;2023-02-12T03:17:47;95420.19;;;4.22;67.19
19783;BME280;10051;40.294;-3.754;2023-02-12T03:22:47;95352.53;;;3.69;66.81
19783;BME280;10051;40.294;-3.754;2023-02-12T03:25:19;95374.34;;;3.75;67.65
19783;BME280;10051;40.294;-3.754;2023-02-12T03:27:49;95430.78;;;4.27;67.28
19783;BME280;10051;40.294;-3.754;2023-02-12T03:30:17;95404.66;;;4.08;67.11
19783;BME280;10051;40.294;-3.754;2023-02-12T03:32:53;95434.22;;;4.27;66.88
19783;BME280;10051;40.294;-3.754;2023-02-12T03:35:34;95428.59;;;4.24;67.27
19783;BME280;10051;40.294;-3.754;2023-02-12T03:40:45;95360.66;;;3.86;66.77
19783;BME280;10051;40.294;-3.754;2023-02-12T03:43:36;95346.72;;;3.74;66.94
19783;BME280;10051;40.294;-3.754;2023-02-12T03:46:19;95431.19;;;4.30;66.63
19783;BME280;10051;40.294;-3.754;2023-02-12T03:49:09;95374.22;;;4.02;66.27
19783;BME280;10051;40.294;-3.754;2023-02-12T03:51:41;95403.97;;;4.20;66.37
19783;BME280;10051;40.294;-3.754;2023-02-12T03:54:11;95411.03;;;4.12;66.93
19783;BME280;10051;40.294;-3.754;2023-02-12T03:56:54;95426.53;;;4.39;66.48
19783;BME280;10051;40.294;-3.754;2023-02-12T03:59:22;95428.59;;;4.30;66.16
19783;BME280;10051;40.294;-3.754;2023-02-12T04:01:51;95422.09;;;4.46;65.71
19783;BME280;10051;40.294;-3.754;2023-02-12T04:04:18;95418.94;;;4.38;65.77
19783;BME280;10051;40.294;-3.754;2023-02-12T04:06:45;95430.50;;;4.49;66.17
19783;BME280;10051;40.294;-3.754;2023-02-12T04:09:12;95374.91;;;4.23;65.67
19783;BME280;10051;40.294;-3.754;2023-02-12T04:12:08;95422.50;;;4.43;66.02
19783;BME280;10051;40.294;-3.754;2023-02-12T04:14:58;95418.78;;;4.26;66.22
19783;BME280;10051;40.294;-3.754;2023-02-12T04:26:19;95370.22;;;3.99;66.55
19783;BME280;10051;40.294;-3.754;2023-02-12T04:28:56;95363.09;;;3.81;66.70
19783;BME280;10051;40.294;-3.754;2023-02-12T04:31:29;95414.63;;;4.18;66.89
19783;BME280;10051;40.294;-3.754;2023-02-12T04:36:37;95408.78;;;4.23;66.99
19783;BME280;10051;40.294;-3.754;2023-02-12T04:39:11;95303.16;;;3.49;67.07
19783;BME280;10051;40.294;-3.754;2023-02-12T04:41:40;95321.56;;;3.54;67.64
19783;BME280;10051;40.294;-3.754;2023-02-12T04:44:34;95417.94;;;4.32;66.54
19783;BME280;10051;40.294;-3.754;2023-02-12T04:47:01;95417.78;;;4.27;67.06
19783;BME280;10051;40.294;-3.754;2023-02-12T04:49:27;95316.03;;;3.31;67.88
19783;BME280;10051;40.294;-3.754;2023-02-12T04:51:53;95342.78;;;3.51;67.64
19783;BME280;10051;40.294;-3.754;2023-02-12T04:54:20;95366.56;;;3.62;67.71
19783;BME280;10051;40.294;-3.754;2023-02-12T04:56:46;95417.31;;;3.91;68.37
19783;BME280;10051;40.294;-3.754;2023-02-12T04:59:12;95345.16;;;3.60;68.35
19783;BME280;10051;40.294;-3.754;2023-02-12T05:01:39;95413.66;;;4.12;67.97
19783;BME280;10051;40.294;-3.754;2023-02-12T05:04:06;95420.69;;;4.05;68.22
19783;BME280;10051;40.294;-3.754;2023-02-12T05:06:42;95417.09;;;3.93;68.62
19783;BME280;10051;40.294;-3.754;2023-02-12T05:09:12;95417.00;;;4.20;67.89
19783;BME280;10051;40.294;-3.754;2023-02-12T05:11:38;95363.69;;;3.83;67.82
19783;BME280;10051;40.294;-3.754;2023-02-12T05:14:04;95385.47;;;3.96;68.18
19783;BME280;10051;40.294;-3.754;2023-02-12T05:16:29;95314.78;;;3.53;67.71
19783;BME280;10051;40.294;-3.754;2023-02-12T05:18:55;95421.63;;;4.18;67.96
19783;BME280;10051;40.294;-3.754;2023-02-12T05:21:21;95265.28;;;3.15;68.10
19783;BME280;10051;40.294;-3.754;2023-02-12T05:23:47;95290.19;;;3.36;68.12
19783;BME280;10051;40.294;-3.754;2023-02-12T05:26:16;95405.84;;;4.12;68.00
19783;BME280;10051;40.294;-3.754;2023-02-12T05:28:42;95324.72;;;3.70;67.44
19783;BME280;10051;40.294;-3.754;2023-02-12T05:31:10;95276.19;;;3.37;67.60
19783;BME280;10051;40.294;-3.754;2023-02-12T05:33:37;95419.50;;;4.46;66.78
19783;BME280;10051;40.294;-3.754;2023-02-12T05:36:08;95267.19;;;3.46;67.14
19783;BME280;10051;40.294;-3.754;2023-02-12T05:38:34;95366.53;;;4.21;66.87
19783;BME280;10051;40.294;-3.754;2023-02-12T05:41:07;95421.31;;;4.39;67.31
19783;BME280;10051;40.294;-3.754;2023-02-12T05:43:33;95367.59;;;4.06;67.42
19783;BME280;10051;40.294;-3.754;2023-02-12T05:46:00;95380.66;;;4.38;66.29
19783;BME280;10051;40.294;-3.754;2023-02-12T05:48:26;95318.75;;;4.01;66.24
19783;BME280;10051;40.294;-3.754;2023-02-12T05:50:52;95311.94;;;4.00;65.95
19783;BME280;10051;40.294;-3.754;2023-02-12T05:53:18;95378.22;;;4.43;65.69
19783;BME280;10051;40.294;-3.754;2023-02-12T05:55:44;95395.38;;;4.58;65.13
19783;BME280;10051;40.294;-3.754;2023-02-12T05:58:10;95324.72;;;4.15;64.80
19783;BME280;10051;40.294;-3.754;2023-02-12T06:00:36;95308.16;;;4.03;64.76
19783;BME280;10051;40.294;-3.754;2023-02-12T06:03:01;95307.31;;;4.09;64.17
19783;BME280;10051;40.294;-3.754;2023-02-12T06:05:27;95314.53;;;4.07;64.60
19783;BME280;10051;40.294;-3.754;2023-02-12T06:07:52;95441.44;;;4.96;63.79
19783;BME280;10051;40.294;-3.754;2023-02-12T06:10:18;95391.59;;;4.54;64.47
19783;BME280;10051;40.294;-3.754;2023-02-12T06:12:44;95361.59;;;4.44;64.21
19783;BME280;10051;40.294;-3.754;2023-02-12T06:15:09;95442.72;;;4.87;64.55
19783;BME280;10051;40.294;-3.754;2023-02-12T06:17:35;95378.75;;;4.59;64.34
19783;BME280;10051;40.294;-3.754;2023-02-12T06:20:01;95399.06;;;4.75;63.77
19783;BME280;10051;40.294;-3.754;2023-02-12T06:22:27;95439.25;;;4.93;64.17
19783;BME280;10051;40.294;-3.754;2023-02-12T06:24:53;95348.56;;;4.44;63.39
19783;BME280;10051;40.294;-3.754;2023-02-12T06:27:18;95357.22;;;4.38;63.27
19783;BME280;10051;40.294;-3.754;2023-02-12T06:29:44;95451.72;;;4.91;63.85
19783;BME280;10051;40.294;-3.754;2023-02-12T06:32:10;95429.13;;;4.78;64.06
19783;BME280;10051;40.294;-3.754;2023-02-12T06:34:38;95315.00;;;3.97;64.62
19783;BME280;10051;40.294;-3.754;2023-02-12T06:37:04;95302.22;;;3.89;64.33
19783;BME280;10051;40.294;-3.754;2023-02-12T06:39:30;95434.38;;;4.71;64.54
19783;BME280;10051;40.294;-3.754;2023-02-12T06:41:56;95373.81;;;4.05;65.70
19783;BME280;10051;40.294;-3.754;2023-02-12T06:44:22;95418.91;;;4.44;65.16
19783;BME280;10051;40.294;-3.754;2023-02-12T06:46:48;95423.09;;;4.45;65.37
19783;BME280;10051;40.294;-3.754;2023-02-12T06:49:13;95408.63;;;4.18;65.97
19783;BME280;10051;40.294;-3.754;2023-02-12T06:51:39;95355.00;;;4.03;65.22
19783;BME280;10051;40.294;-3.754;2023-02-12T06:54:11;95395.38;;;4.19;65.23
19783;BME280;10051;40.294;-3.754;2023-02-12T06:56:38;95434.22;;;4.27;66.28
19783;BME280;10051;40.294;-3.754;2023-02-12T06:59:03;95428.03;;;4.15;66.68
19783;BME280;10051;40.294;-3.754;2023-02-12T07:01:29;95452.63;;;4.26;66.28
19783;BME280;10051;40.294;-3.754;2023-02-12T07:03:57;95444.25;;;4.17;66.52
19783;BME280;10051;40.294;-3.754;2023-02-12T07:06:24;95460.50;;;4.12;67.05
19783;BME280;10051;40.294;-3.754;2023-02-12T07:08:50;95465.94;;;4.04;67.72
19783;BME280;10051;40.294;-3.754;2023-02-12T07:11:17;95457.09;;;4.19;67.10
19783;BME280;10051;40.294;-3.754;2023-02-12T07:13:44;95457.50;;;4.15;67.09
19783;BME280;10051;40.294;-3.754;2023-02-12T07:16:13;95403.19;;;3.67;67.40
19783;BME280;10051;40.294;-3.754;2023-02-12T07:18:40;95335.66;;;3.13;68.05
19783;BME280;10051;40.294;-3.754;2023-02-12T07:21:07;95465.13;;;4.10;67.73
19783;BME280;10051;40.294;-3.754;2023-02-12T07:23:33;95440.31;;;4.01;66.90
19783;BME280;10051;40.294;-3.754;2023-02-12T07:26:11;95472.53;;;4.13;66.82
19783;BME280;10051;40.294;-3.754;2023-02-12T07:28:38;95443.16;;;3.79;67.79
19783;BME280;10051;40.294;-3.754;2023-02-12T07:33:36;95478.84;;;4.31;66.46
19783;BME280;10051;40.294;-3.754;2023-02-12T07:36:04;95457.16;;;3.92;67.44
19783;BME280;10051;40.294;-3.754;2023-02-12T07:38:31;95476.31;;;4.11;67.67
19783;BME280;10051;40.294;-3.754;2023-02-12T07:43:38;95485.97;;;3.97;67.87
19783;BME280;10051;40.294;-3.754;2023-02-12T07:46:06;95449.38;;;3.78;67.47
19783;BME280;10051;40.294;-3.754;2023-02-12T07:48:32;95484.53;;;4.08;67.59
19783;BME280;10051;40.294;-3.754;2023-02-12T07:51:02;95493.16;;;4.01;68.43
19783;BME280;10051;40.294;-3.754;2023-02-12T07:53:28;95489.56;;;3.96;68.67
19783;BME280;10051;40.294;-3.754;2023-02-12T07:55:53;95355.69;;;2.99;69.04
19783;BME280;10051;40.294;-3.754;2023-02-12T07:58:19;95451.41;;;3.63;68.93
19783;BME280;10051;40.294;-3.754;2023-02-12T08:00:44;95469.19;;;3.72;69.14
19783;BME280;10051;40.294;-3.754;2023-02-12T08:03:10;95347.47;;;2.95;69.18
19783;BME280;10051;40.294;-3.754;2023-02-12T08:05:36;95490.59;;;3.81;69.10
19783;BME280;10051;40.294;-3.754;2023-02-12T08:08:01;95424.59;;;3.55;68.67
19783;BME280;10051;40.294;-3.754;2023-02-12T08:10:27;95448.75;;;3.76;67.93
19783;BME280;10051;40.294;-3.754;2023-02-12T08:12:52;95496.16;;;4.05;68.36
19783;BME280;10051;40.294;-3.754;2023-02-12T08:15:18;95461.38;;;3.79;68.40
19783;BME280;10051;40.294;-3.754;2023-02-12T08:17:44;95426.00;;;3.58;68.40
19783;BME280;10051;40.294;-3.754;2023-02-12T08:20:09;95484.38;;;3.96;68.09
19783;BME280;10051;40.294;-3.754;2023-02-12T08:22:35;95374.66;;;3.26;68.33
19783;BME280;10051;40.294;-3.754;2023-02-12T08:25:01;95422.59;;;3.57;68.37
19783;BME280;10051;40.294;-3.754;2023-02-12T08:27:26;95362.84;;;3.17;67.97
19783;BME280;10051;40.294;-3.754;2023-02-12T08:29:52;95407.22;;;3.49;68.10
19783;BME280;10051;40.294;-3.754;2023-02-12T08:32:17;95492.16;;;4.09;67.54
19783;BME280;10051;40.294;-3.754;2023-02-12T08:34:43;95483.53;;;4.15;67.32
19783;BME280;10051;40.294;-3.754;2023-02-12T08:37:09;95388.16;;;3.69;66.82
19783;BME280;10051;40.294;-3.754;2023-02-12T08:39:34;95511.00;;;4.64;66.21
19783;BME280;10051;40.294;-3.754;2023-02-12T08:42:00;95487.16;;;4.60;65.89
19783;BME280;10051;40.294;-3.754;2023-02-12T08:44:26;95477.53;;;4.60;65.74
19783;BME280;10051;40.294;-3.754;2023-02-12T08:46:52;95443.94;;;4.45;64.99
19783;BME280;10051;40.294;-3.754;2023-02-12T08:49:25;95513.31;;;4.85;65.29
19783;BME280;10051;40.294;-3.754;2023-02-12T08:51:53;95506.03;;;4.94;64.58
19783;BME280;10051;40.294;-3.754;2023-02-12T08:54:22;95488.03;;;4.86;65.20
19783;BME280;10051;40.294;-3.754;2023-02-12T08:56:48;95411.97;;;4.31;64.64
19783;BME280;10051;40.294;-3.754;2023-02-12T08:59:15;95443.19;;;4.70;64.14
19783;BME280;10051;40.294;-3.754;2023-02-12T09:01:41;95409.53;;;4.69;63.50
19783;BME280;10051;40.294;-3.754;2023-02-12T09:04:26;95533.72;;;5.53;63.22
19783;BME280;10051;40.294;-3.754;2023-02-12T09:06:52;95488.88;;;5.37;62.24
19783;BME280;10051;40.294;-3.754;2023-02-12T09:09:18;95488.09;;;5.36;62.72
19783;BME280;10051;40.294;-3.754;2023-02-12T09:11:44;95505.03;;;5.53;61.81
19783;BME280;10051;40.294;-3.754;2023-02-12T09:14:15;95465.53;;;5.49;61.67
19783;BME280;10051;40.294;-3.754;2023-02-12T09:16:41;95416.75;;;5.24;60.65
19783;BME280;10051;40.294;-3.754;2023-02-12T09:19:08;95412.50;;;5.04;61.99
19783;BME280;10051;40.294;-3.754;2023-02-12T09:21:35;95482.72;;;5.31;62.43
19783;BME280;10051;40.294;-3.754;2023-02-12T09:24:01;95392.31;;;4.68;63.14
19783;BME280;10051;40.294;-3.754;2023-02-12T09:26:28;95438.00;;;5.02;63.46
19783;BME280;10051;40.294;-3.754;2023-02-12T09:28:53;95457.75;;;5.42;62.29
19783;BME280;10051;40.294;-3.754;2023-02-12T09:31:27;95488.72;;;5.57;62.00
19783;BME280;10051;40.294;-3.754;2023-02-12T09:34:01;95531.88;;;5.85;62.53
19783;BME280;10051;40.294;-3.754;2023-02-12T09:36:27;95475.09;;;5.55;62.52
19783;BME280;10051;40.294;-3.754;2023-02-12T09:38:53;95522.44;;;5.84;62.75
19783;BME280;10051;40.294;-3.754;2023-02-12T09:44:42;95502.19;;;5.54;63.48
19783;BME280;10051;40.294;-3.754;2023-02-12T09:50:48;95503.34;;;6.09;61.99
19783;BME280;10051;40.294;-3.754;2023-02-12T09:53:18;95395.66;;;5.51;61.66
19783;BME280;10051;40.294;-3.754;2023-02-12T09:55:45;95475.28;;;5.98;62.16
19783;BME280;10051;40.294;-3.754;2023-02-12T10:00:49;95481.28;;;6.23;61.09
19783;BME280;10051;40.294;-3.754;2023-02-12T10:03:16;95496.41;;;6.40;61.26
19783;BME280;10051;40.294;-3.754;2023-02-12T10:05:57;95444.94;;;6.22;60.76
19783;BME280;10051;40.294;-3.754;2023-02-12T10:11:18;95527.47;;;6.97;60.24
19783;BME280;10051;40.294;-3.754;2023-02-12T10:28:10;95517.66;;;6.93;60.53
19783;BME280;10051;40.294;-3.754;2023-02-12T10:33:23;95521.34;;;7.04;60.54
19783;BME280;10051;40.294;-3.754;2023-02-12T10:35:58;95487.38;;;6.85;60.85
19783;BME280;10051;40.294;-3.754;2023-02-12T10:38:34;95527.09;;;7.24;60.87
19783;BME280;10051;40.294;-3.754;2023-02-12T10:41:00;95407.75;;;6.69;60.57
19783;BME280;10051;40.294;-3.754;2023-02-12T10:43:27;95464.84;;;7.26;59.37
19783;BME280;10051;40.294;-3.754;2023-02-12T10:45:53;95436.53;;;7.35;58.94
19783;BME280;10051;40.294;-3.754;2023-02-12T10:48:25;95398.97;;;7.06;58.10
19783;BME280;10051;40.294;-3.754;2023-02-12T10:53:38;95520.47;;;8.12;57.99
19783;BME280;10051;40.294;-3.754;2023-02-12T10:56:15;95478.56;;;7.88;57.96
19783;BME280;10051;40.294;-3.754;2023-02-12T10:58:58;95508.59;;;8.21;57.35
19783;BME280;10051;40.294;-3.754;2023-02-12T11:01:32;95510.41;;;8.32;57.66
19783;BME280;10051;40.294;-3.754;2023-02-12T11:03:59;95472.63;;;8.04;57.47
19783;BME280;10051;40.294;-3.754;2023-02-12T11:06:56;95503.13;;;8.23;57.82
19783;BME280;10051;40.294;-3.754;2023-02-12T11:09:49;95510.41;;;8.32;57.71
19783;BME280;10051;40.294;-3.754;2023-02-12T11:14:49;95509.72;;;8.25;57.90
19783;BME280;10051;40.294;-3.754;2023-02-12T11:22:35;95483.78;;;8.12;58.32
19783;BME280;10051;40.294;-3.754;2023-02-12T11:25:13;95498.53;;;8.54;58.33
19783;BME280;10051;40.294;-3.754;2023-02-12T11:27:40;95506.47;;;8.71;58.24
19783;BME280;10051;40.294;-3.754;2023-02-12T11:30:11;95498.31;;;8.84;57.69
19783;BME280;10051;40.294;-3.754;2023-02-12T11:32:37;95497.38;;;9.19;57.11
19783;BME280;10051;40.294;-3.754;2023-02-12T11:35:19;95468.97;;;9.16;56.44
19783;BME280;10051;40.294;-3.754;2023-02-12T11:37:54;95499.91;;;9.31;56.00
19783;BME280;10051;40.294;-3.754;2023-02-12T11:40:28;95444.78;;;9.14;56.00
19783;BME280;10051;40.294;-3.754;2023-02-12T11:42:57;95352.94;;;8.63;56.50
19783;BME280;10051;40.294;-3.754;2023-02-12T11:45:47;95478.94;;;9.82;55.23
19783;BME280;10051;40.294;-3.754;2023-02-12T11:48:21;95457.94;;;9.65;55.10
19783;BME280;10051;40.294;-3.754;2023-02-12T11:50:51;95476.25;;;10.00;54.57
19783;BME280;10051;40.294;-3.754;2023-02-12T11:53:46;95467.84;;;10.20;55.17
19783;BME280;10051;40.294;-3.754;2023-02-12T11:56:13;95471.78;;;10.39;54.46
19783;BME280;10051;40.294;-3.754;2023-02-12T11:58:40;95470.31;;;10.49;54.06
19783;BME280;10051;40.294;-3.754;2023-02-12T12:01:29;95468.66;;;10.65;53.65
19783;BME280;10051;40.294;-3.754;2023-02-12T12:04:07;95452.31;;;10.63;53.20
19783;BME280;10051;40.294;-3.754;2023-02-12T12:06:49;95459.34;;;10.79;53.15
19783;BME280;10051;40.294;-3.754;2023-02-12T12:09:34;95433.53;;;10.76;53.08
19783;BME280;10051;40.294;-3.754;2023-02-12T12:18:15;95392.81;;;10.84;52.91
19783;BME280;10051;40.294;-3.754;2023-02-12T12:20:46;95449.50;;;11.24;52.41
19783;BME280;10051;40.294;-3.754;2023-02-12T12:23:39;95388.34;;;10.84;52.09
19783;BME280;10051;40.294;-3.754;2023-02-12T12:26:11;95430.53;;;11.22;51.84
19783;BME280;10051;40.294;-3.754;2023-02-12T12:28:45;95382.47;;;11.05;51.90
19783;BME280;10051;40.294;-3.754;2023-02-12T12:31:21;95406.56;;;11.24;52.02
19783;BME280;10051;40.294;-3.754;2023-02-12T12:42:51;95418.13;;;11.55;51.18
19783;BME280;10051;40.294;-3.754;2023-02-12T12:48:23;95411.13;;;11.34;51.44
19783;BME280;10051;40.294;-3.754;2023-02-12T12:51:08;95407.44;;;11.35;51.45
19783;BME280;10051;40.294;-3.754;2023-02-12T12:53:49;95406.94;;;11.38;50.92
19783;BME280;10051;40.294;-3.754;2023-02-12T12:56:46;95370.84;;;11.00;52.05
19783;BME280;10051;40.294;-3.754;2023-02-12T13:07:57;95309.56;;;10.67;51.68
19783;BME280;10051;40.294;-3.754;2023-02-12T13:16:05;95373.22;;;11.35;51.86
19783;BME280;10051;40.294;-3.754;2023-02-12T13:18:57;95375.47;;;11.58;51.54
19783;BME280;10051;40.294;-3.754;2023-02-12T13:32:10;95343.34;;;12.15;49.62
19783;BME280;10051;40.294;-3.754;2023-02-12T13:34:38;95348.66;;;12.41;48.91
19783;BME280;10051;40.294;-3.754;2023-02-12T13:37:06;95284.47;;;11.99;48.62
19783;BME280;10051;40.294;-3.754;2023-02-12T13:39:40;95262.56;;;11.98;47.61
19783;BME280;10051;40.294;-3.754;2023-02-12T13:53:26;95340.53;;;12.78;45.43
19783;BME280;10051;40.294;-3.754;2023-02-12T13:55:57;95340.53;;;12.73;45.17
19783;BME280;10051;40.294;-3.754;2023-02-12T14:01:07;95326.28;;;12.48;46.33
19783;BME280;10051;40.294;-3.754;2023-02-12T14:03:33;95336.06;;;12.63;46.33
19783;BME280;10051;40.294;-3.754;2023-02-12T14:08:43;95275.47;;;11.89;46.36
19783;BME280;10051;40.294;-3.754;2023-02-12T14:11:15;95281.28;;;11.97;47.30
19783;BME280;10051;40.294;-3.754;2023-02-12T14:14:01;95316.72;;;12.22;47.91
19783;BME280;10051;40.294;-3.754;2023-02-12T14:25:01;95256.59;;;12.08;47.47
19783;BME280;10051;40.294;-3.754;2023-02-12T14:35:33;95318.38;;;12.69;46.39
19783;BME280;10051;40.294;-3.754;2023-02-12T14:38:55;95315.75;;;12.79;45.96
19783;BME280;10051;40.294;-3.754;2023-02-12T14:40:50;95304.94;;;12.76;45.39
19783;BME280;10051;40.294;-3.754;2023-02-12T14:48:54;95318.91;;;12.82;44.79
19783;BME280;10051;40.294;-3.754;2023-02-12T14:51:39;95328.94;;;12.90;44.37
19783;BME280;10051;40.294;-3.754;2023-02-12T14:54:23;95288.81;;;12.77;44.23
19783;BME280;10051;40.294;-3.754;2023-02-12T14:56:51;95319.16;;;12.64;45.31
19783;BME280;10051;40.294;-3.754;2023-02-12T14:59:22;95313.09;;;12.48;45.41
19783;BME280;10051;40.294;-3.754;2023-02-12T15:01:50;95305.69;;;12.45;45.95
19783;BME280;10051;40.294;-3.754;2023-02-12T15:04:24;95262.09;;;12.01;45.90
19783;BME280;10051;40.294;-3.754;2023-02-12T15:07:15;95298.75;;;12.08;46.22
19783;BME280;10051;40.294;-3.754;2023-02-12T15:09:56;95297.72;;;12.19;46.10
19783;BME280;10051;40.294;-3.754;2023-02-12T15:12:34;95282.44;;;12.11;46.24
19783;BME280;10051;40.294;-3.754;2023-02-12T15:15:12;95225.94;;;11.92;45.93
19783;BME280;10051;40.294;-3.754;2023-02-12T15:17:42;95297.25;;;12.48;45.90
19783;BME280;10051;40.294;-3.754;2023-02-12T15:20:29;95304.63;;;12.67;45.62
19783;BME280;10051;40.294;-3.754;2023-02-12T15:22:58;95244.47;;;12.38;45.51
19783;BME280;10051;40.294;-3.754;2023-02-12T15:25:27;95294.63;;;12.74;45.65
19783;BME280;10051;40.294;-3.754;2023-02-12T15:27:58;95207.00;;;12.15;45.79
19783;BME280;10051;40.294;-3.754;2023-02-12T15:30:33;95296.72;;;12.72;45.75
19783;BME280;10051;40.294;-3.754;2023-02-12T15:33:03;95198.84;;;12.22;45.43
19783;BME280;10051;40.294;-3.754;2023-02-12T15:35:33;95251.88;;;12.46;45.51
19783;BME280;10051;40.294;-3.754;2023-02-12T15:38:03;95285.41;;;12.72;45.72
19783;BME280;10051;40.294;-3.754;2023-02-12T15:40:34;95111.50;;;11.51;44.22
19783;BME280;10051;40.294;-3.754;2023-02-12T15:43:05;95293.81;;;12.53;44.88
19783;BME280;10051;40.294;-3.754;2023-02-12T15:45:35;95319.13;;;12.49;43.90
19783;BME280;10051;40.294;-3.754;2023-02-12T15:48:17;95312.56;;;12.52;44.37
19783;BME280;10051;40.294;-3.754;2023-02-12T15:51:25;95157.66;;;11.74;43.61
19783;BME280;10051;40.294;-3.754;2023-02-12T15:54:02;95147.09;;;11.64;44.06
19783;BME280;10051;40.294;-3.754;2023-02-12T15:56:28;95177.69;;;11.86;43.58